createdAt,value
2022-12-13T00:01:23.419Z,38.25
2022-12-13T00:03:55.428Z,39.88
2022-12-13T00:06:23.014Z,39.92
2022-12-13T00:08:50.614Z,39.58
2022-12-13T00:11:18.568Z,36.65
2022-12-13T00:13:50.162Z,40.60
2022-12-13T00:16:19.623Z,37.08
2022-12-13T00:18:47.967Z,39.47
2022-12-13T00:21:16.864Z,33.47
2022-12-13T00:23:44.609Z,35.72
2022-12-13T00:26:16.958Z,39.03
2022-12-13T00:28:44.796Z,33.30
2022-12-13T00:31:53.492Z,37.72
2022-12-13T00:34:00.401Z,38.28
2022-12-13T00:36:28.590Z,29.00
2022-12-13T00:39:02.614Z,38.58
2022-12-13T00:41:34.941Z,36.40
2022-12-13T00:44:03.872Z,39.45
2022-12-13T00:46:32.046Z,36.40
2022-12-13T00:49:00.656Z,32.45
2022-12-13T00:51:29.437Z,28.90
2022-12-13T00:53:57.247Z,31.52
2022-12-13T00:56:26.565Z,38.38
2022-12-13T00:58:54.401Z,35.78
2022-12-13T01:01:26.313Z,35.70
2022-12-13T01:03:54.526Z,31.77
2022-12-13T01:06:26.098Z,34.20
2022-12-13T01:08:53.991Z,43.33
2022-12-13T01:11:21.613Z,37.85
2022-12-13T01:13:49.581Z,34.92
2022-12-13T01:16:18.833Z,35.10
2022-12-13T01:18:46.671Z,35.33
2022-12-13T01:21:16.249Z,39.22
2022-12-13T01:23:43.985Z,40.85
2022-12-13T01:26:13.609Z,39.22
2022-12-13T01:28:41.660Z,39.45
2022-12-13T01:31:12.488Z,37.80
2022-12-13T01:33:40.191Z,41.00
2022-12-13T01:36:15.983Z,40.38
2022-12-13T01:38:43.857Z,39.88
2022-12-13T01:41:19.142Z,40.72
2022-12-13T01:43:47.097Z,38.03
2022-12-13T01:46:15.580Z,38.55
2022-12-13T01:48:49.927Z,32.25
2022-12-13T01:51:18.339Z,41.53
2022-12-13T01:53:46.144Z,38.00
2022-12-13T01:56:19.839Z,37.80
2022-12-13T01:58:51.066Z,37.70
2022-12-13T02:01:18.795Z,36.33
2022-12-13T02:03:47.288Z,40.90
2022-12-13T02:06:17.824Z,37.10
2022-12-13T02:08:47.295Z,40.88
2022-12-13T02:11:15.833Z,38.90
2022-12-13T02:13:43.867Z,39.85
2022-12-13T02:16:23.043Z,44.47
2022-12-13T02:18:50.856Z,47.08
2022-12-13T02:21:35.595Z,46.65
2022-12-13T02:24:21.529Z,44.10
2022-12-13T02:26:58.401Z,41.00
2022-12-13T02:29:44.222Z,45.47
2022-12-13T02:32:19.253Z,40.60
2022-12-13T02:34:54.982Z,41.03
2022-12-13T02:37:23.882Z,46.97
2022-12-13T02:39:57.583Z,48.10
2022-12-13T02:42:35.355Z,52.28
2022-12-13T02:45:08.724Z,50.63
2022-12-13T02:47:38.155Z,56.20
2022-12-13T02:50:06.839Z,48.95
2022-12-13T02:52:34.795Z,45.28
2022-12-13T02:55:07.012Z,50.25
2022-12-13T02:57:36.469Z,49.63
2022-12-13T03:00:07.275Z,53.50
2022-12-13T03:02:57.153Z,52.63
2022-12-13T03:06:18.507Z,46.92
2022-12-13T03:12:25.086Z,43.47
2022-12-13T03:15:06.224Z,43.33
2022-12-13T03:17:36.816Z,45.10
2022-12-13T03:20:12.847Z,44.05
2022-12-13T03:22:54.123Z,46.42
2022-12-13T03:25:32.158Z,43.42
2022-12-13T03:28:02.259Z,41.97
2022-12-13T03:30:31.641Z,44.17
2022-12-13T03:32:59.792Z,45.95
2022-12-13T03:35:35.070Z,44.28
2022-12-13T03:38:21.396Z,40.10
2022-12-13T03:40:55.817Z,45.38
2022-12-13T03:43:23.741Z,47.17
2022-12-13T03:45:53.451Z,45.13
2022-12-13T03:48:22.518Z,39.92
2022-12-13T03:50:51.933Z,44.42
2022-12-13T03:53:23.300Z,42.97
2022-12-13T03:56:01.759Z,38.95
2022-12-13T03:58:35.941Z,47.35
2022-12-13T04:01:06.508Z,49.65
2022-12-13T04:03:34.874Z,49.88
2022-12-13T04:06:02.790Z,54.67
2022-12-13T04:08:30.682Z,49.83
2022-12-13T04:10:58.311Z,44.28
2022-12-13T04:13:34.907Z,46.45
2022-12-13T04:16:02.983Z,46.90
2022-12-13T04:18:30.902Z,51.53
2022-12-13T04:20:58.636Z,49.70
2022-12-13T04:23:26.948Z,64.93
2022-12-13T04:25:54.668Z,54.55
2022-12-13T04:28:23.193Z,58.28
2022-12-13T04:30:53.805Z,55.17
2022-12-13T04:33:22.799Z,45.47
2022-12-13T04:35:50.672Z,56.25
2022-12-13T04:38:18.473Z,66.72
2022-12-13T04:40:46.460Z,50.47
2022-12-13T04:43:14.413Z,66.15
2022-12-13T04:45:42.594Z,58.05
2022-12-13T04:48:12.313Z,58.83
2022-12-13T04:50:39.944Z,59.40
2022-12-13T04:53:07.583Z,58.33
2022-12-13T04:55:35.171Z,61.22
2022-12-13T04:58:02.764Z,70.47
2022-12-13T05:00:30.413Z,55.28
2022-12-13T05:02:58.108Z,62.40
2022-12-13T05:05:25.787Z,70.55
2022-12-13T05:07:53.488Z,71.40
2022-12-13T05:10:34.046Z,82.70
2022-12-13T05:13:05.292Z,84.80
2022-12-13T05:15:33.379Z,72.03
2022-12-13T05:18:10.301Z,69.82
2022-12-13T05:20:39.801Z,74.80
2022-12-13T05:23:07.543Z,66.82
2022-12-13T05:25:37.320Z,64.97
2022-12-13T05:28:26.970Z,65.95
2022-12-13T05:30:57.924Z,56.88
2022-12-13T05:33:28.845Z,59.70
2022-12-13T05:36:01.307Z,66.80
2022-12-13T05:38:30.255Z,62.53
2022-12-13T05:40:58.438Z,64.57
2022-12-13T05:43:42.402Z,66.38
2022-12-13T05:46:14.510Z,63.13
2022-12-13T05:48:42.266Z,66.53
2022-12-13T05:51:12.168Z,66.80
2022-12-13T05:53:48.587Z,67.85
2022-12-13T05:56:22.713Z,67.13
2022-12-13T05:58:54.287Z,61.60
2022-12-13T06:03:51.809Z,55.60
2022-12-13T06:06:20.254Z,68.55
2022-12-13T06:08:47.812Z,63.72
2022-12-13T06:11:30.980Z,69.05
2022-12-13T06:14:00.935Z,65.00
2022-12-13T06:16:29.199Z,61.30
2022-12-13T06:19:03.923Z,69.28
2022-12-13T06:21:43.786Z,67.82
2022-12-13T06:24:23.482Z,74.28
2022-12-13T06:26:52.225Z,71.60
2022-12-13T06:29:24.266Z,68.20
2022-12-13T06:32:01.685Z,72.95
2022-12-13T06:34:32.050Z,74.57
2022-12-13T06:37:00.883Z,62.53
2022-12-13T06:39:33.198Z,62.55
2022-12-13T06:42:02.909Z,62.63
2022-12-13T06:44:30.558Z,60.88
2022-12-13T06:47:11.626Z,63.83
2022-12-13T06:49:42.593Z,62.72
2022-12-13T06:52:12.832Z,67.80
2022-12-13T06:54:41.227Z,66.78
2022-12-13T06:57:09.766Z,62.33
2022-12-13T06:59:37.377Z,66.65
2022-12-13T07:02:06.767Z,63.97
2022-12-13T07:04:52.396Z,67.43
2022-12-13T07:07:20.078Z,64.15
2022-12-13T07:09:47.683Z,65.47
2022-12-13T07:12:15.576Z,64.28
2022-12-13T07:14:43.192Z,72.55
2022-12-13T07:17:11.064Z,72.10
2022-12-13T07:19:38.844Z,78.13
2022-12-13T07:22:06.539Z,68.03
2022-12-13T07:24:34.961Z,62.60
2022-12-13T07:27:03.673Z,62.33
2022-12-13T07:29:32.194Z,65.72
2022-12-13T07:32:01.717Z,58.33
2022-12-13T07:34:30.716Z,61.88
2022-12-13T07:36:58.460Z,53.38
2022-12-13T07:39:26.444Z,65.47
2022-12-13T07:41:57.646Z,67.93
2022-12-13T07:44:25.338Z,60.17
2022-12-13T07:46:53.218Z,61.13
2022-12-13T07:49:21.161Z,66.90
2022-12-13T07:51:49.258Z,61.95
2022-12-13T07:54:17.041Z,56.63
2022-12-13T07:56:44.688Z,66.72
2022-12-13T07:59:13.798Z,66.32
2022-12-13T08:01:41.427Z,57.75
2022-12-13T08:04:10.187Z,66.07
2022-12-13T08:06:38.182Z,62.22
2022-12-13T08:09:06.289Z,61.83
2022-12-13T08:11:35.142Z,50.20
2022-12-13T08:14:03.366Z,56.47
2022-12-13T08:16:31.213Z,47.58
2022-12-13T08:19:03.060Z,56.35
2022-12-13T08:21:57.363Z,50.92
2022-12-13T08:24:27.790Z,49.75
2022-12-13T08:26:57.617Z,56.45
2022-12-13T08:29:32.922Z,45.85
2022-12-13T08:32:09.270Z,47.65
2022-12-13T08:34:37.242Z,44.63
2022-12-13T08:37:05.338Z,44.53
2022-12-13T08:39:37.396Z,44.67
2022-12-13T08:42:18.722Z,48.58
2022-12-13T08:47:24.101Z,52.10
2022-12-13T08:50:03.222Z,48.28
2022-12-13T08:52:38.904Z,44.28
2022-12-13T08:55:10.604Z,47.00
2022-12-13T08:57:39.821Z,44.22
2022-12-13T09:00:09.170Z,42.97
2022-12-13T09:02:38.444Z,46.45
2022-12-13T09:05:07.627Z,44.75
2022-12-13T09:07:36.501Z,51.08
2022-12-13T09:10:25.983Z,43.90
2022-12-13T09:12:53.895Z,38.30
2022-12-13T09:15:33.778Z,40.10
2022-12-13T09:18:04.833Z,41.90
2022-12-13T09:20:41.023Z,36.72
2022-12-13T09:23:23.215Z,41.20
2022-12-13T09:26:05.277Z,39.03
2022-12-13T09:28:35.263Z,41.78
2022-12-13T09:31:13.704Z,42.95
2022-12-13T09:33:42.095Z,41.63
2022-12-13T09:36:12.724Z,41.05
2022-12-13T09:38:40.423Z,39.40
2022-12-13T09:41:20.336Z,43.45
2022-12-13T09:44:00.795Z,44.25
2022-12-13T09:46:34.879Z,42.55
2022-12-13T09:49:22.977Z,44.08
2022-12-13T09:52:11.573Z,51.50
2022-12-13T09:54:48.734Z,42.08
2022-12-13T09:57:34.087Z,45.35
2022-12-13T10:00:04.738Z,45.53
2022-12-13T10:02:51.441Z,46.38
2022-12-13T10:05:34.019Z,48.17
2022-12-13T10:08:22.888Z,51.70
2022-12-13T10:10:51.638Z,42.30
2022-12-13T10:13:43.726Z,40.25
2022-12-13T10:16:37.267Z,41.25
2022-12-13T10:19:39.359Z,41.38
2022-12-13T10:25:00.650Z,40.00
2022-12-13T10:27:41.478Z,37.30
2022-12-13T10:30:11.966Z,36.95
2022-12-13T10:32:55.792Z,38.65
2022-12-13T10:35:27.859Z,44.85
2022-12-13T10:37:57.893Z,39.38
2022-12-13T10:40:37.009Z,39.38
2022-12-13T10:43:18.821Z,37.28
2022-12-13T10:46:00.186Z,39.30
2022-12-13T10:48:38.591Z,36.13
2022-12-13T10:51:09.318Z,37.03
2022-12-13T10:53:47.711Z,41.88
2022-12-13T10:56:22.539Z,42.10
2022-12-13T10:59:13.259Z,39.97
2022-12-13T11:01:42.922Z,43.60
2022-12-13T11:04:29.403Z,47.35
2022-12-13T11:06:58.675Z,40.55
2022-12-13T11:09:38.491Z,44.38
2022-12-13T11:12:19.050Z,48.15
2022-12-13T11:15:43.398Z,50.63
2022-12-13T11:18:35.280Z,55.83
2022-12-13T11:21:03.787Z,49.28
2022-12-13T11:23:40.005Z,45.13
2022-12-13T11:26:17.471Z,46.13
2022-12-13T11:28:58.819Z,38.30
2022-12-13T11:31:36.703Z,41.38
2022-12-13T11:34:22.622Z,52.20
2022-12-13T11:37:16.852Z,46.83
2022-12-13T11:39:53.495Z,50.47
2022-12-13T11:42:40.605Z,53.10
2022-12-13T11:45:33.154Z,56.42
2022-12-13T11:48:29.029Z,55.80
2022-12-13T11:50:57.093Z,55.83
2022-12-13T11:53:25.100Z,62.95
2022-12-13T11:55:55.322Z,57.47
2022-12-13T12:01:27.936Z,65.40
2022-12-13T12:04:13.056Z,67.57
2022-12-13T12:06:46.533Z,54.60
2022-12-13T12:09:15.776Z,55.00
2022-12-13T12:11:51.744Z,56.40
2022-12-13T12:14:43.401Z,60.63
2022-12-13T12:17:13.381Z,55.35
2022-12-13T12:19:43.417Z,52.60
2022-12-13T12:22:48.590Z,59.85
2022-12-13T12:25:30.114Z,63.95
2022-12-13T12:28:14.233Z,72.45
2022-12-13T12:30:47.777Z,71.82
2022-12-13T12:33:27.640Z,78.68
2022-12-13T12:36:08.043Z,87.55
2022-12-13T12:38:52.587Z,63.90
2022-12-13T12:41:24.951Z,73.50
2022-12-13T12:44:20.767Z,58.45
2022-12-13T12:47:28.563Z,60.72
2022-12-13T12:50:13.853Z,67.80
2022-12-13T12:52:48.903Z,53.65
2022-12-13T12:55:16.553Z,55.17
2022-12-13T12:58:09.107Z,50.20
2022-12-13T13:01:08.057Z,50.85
2022-12-13T13:03:36.672Z,57.60
2022-12-13T13:06:13.217Z,46.22
2022-12-13T13:08:47.693Z,61.80
2022-12-13T13:11:24.542Z,60.25
2022-12-13T13:14:26.893Z,53.92
2022-12-13T13:16:55.986Z,46.63
2022-12-13T13:19:32.882Z,57.63
2022-12-13T13:22:01.689Z,56.88
2022-12-13T13:24:31.741Z,53.72
2022-12-13T13:27:10.857Z,66.05
2022-12-13T13:29:43.931Z,61.05
2022-12-13T13:32:11.816Z,81.30
2022-12-13T13:34:45.711Z,86.75
2022-12-13T13:37:22.848Z,57.53
2022-12-13T13:40:31.074Z,42.70
2022-12-13T13:43:05.902Z,40.72
2022-12-13T13:45:50.778Z,38.15
2022-12-13T13:48:55.675Z,29.92
2022-12-13T13:52:23.790Z,32.60
2022-12-13T13:54:48.387Z,33.35
2022-12-13T13:58:08.812Z,29.23
2022-12-13T14:00:48.795Z,32.53
2022-12-13T14:03:44.149Z,33.80
2022-12-13T14:06:22.143Z,35.00
2022-12-13T14:09:27.223Z,27.80
2022-12-13T14:12:01.266Z,23.42
2022-12-13T14:15:05.886Z,24.02
2022-12-13T14:17:52.601Z,20.38
2022-12-13T14:20:46.678Z,18.33
2022-12-13T14:23:52.524Z,13.20
2022-12-13T14:26:51.347Z,11.73
2022-12-13T14:29:27.897Z,7.85
2022-12-13T14:31:55.980Z,10.95
2022-12-13T14:34:29.067Z,11.40
2022-12-13T14:37:06.270Z,13.13
2022-12-13T14:39:34.967Z,12.68
2022-12-13T14:42:04.546Z,15.13
2022-12-13T14:44:34.709Z,12.25
2022-12-13T14:47:09.223Z,19.13
2022-12-13T14:49:39.548Z,13.27
2022-12-13T14:52:10.358Z,17.15
2022-12-13T14:54:50.364Z,10.80
2022-12-13T14:57:28.822Z,11.93
2022-12-13T14:59:58.111Z,23.17
2022-12-13T15:02:32.051Z,27.98
2022-12-13T15:07:50.317Z,14.30
2022-12-13T15:10:22.873Z,17.15
2022-12-13T15:12:52.869Z,16.45
2022-12-13T15:15:35.922Z,21.05
2022-12-13T15:18:27.948Z,18.60
2022-12-13T15:20:59.799Z,21.02
2022-12-13T15:23:41.714Z,19.05
2022-12-13T15:26:28.478Z,13.88
2022-12-13T15:28:59.159Z,22.58
2022-12-13T15:31:27.148Z,26.33
2022-12-13T15:34:00.957Z,20.85
2022-12-13T15:36:29.252Z,11.30
2022-12-13T15:39:04.219Z,20.52
2022-12-13T15:41:37.389Z,20.20
2022-12-13T15:44:16.249Z,17.42
2022-12-13T15:46:46.343Z,15.63
2022-12-13T15:49:52.794Z,16.25
2022-12-13T15:52:20.460Z,18.98
2022-12-13T15:55:20.233Z,19.65
2022-12-13T15:57:57.184Z,17.83
2022-12-13T16:00:30.336Z,12.57
2022-12-13T16:03:12.746Z,16.58
2022-12-13T16:05:51.673Z,14.45
2022-12-13T16:08:30.780Z,18.63
2022-12-13T16:10:58.830Z,19.60
2022-12-13T16:13:29.639Z,17.33
2022-12-13T16:16:08.956Z,25.92
2022-12-13T16:18:54.115Z,25.33
2022-12-13T16:21:23.380Z,34.70
2022-12-13T16:23:52.611Z,23.50
2022-12-13T16:26:26.480Z,15.82
2022-12-13T16:28:55.553Z,26.23
2022-12-13T16:31:25.520Z,21.63
2022-12-13T16:33:53.812Z,35.22
2022-12-13T16:36:21.611Z,17.77
2022-12-13T16:38:51.566Z,32.65
2022-12-13T16:41:19.307Z,29.48
2022-12-13T16:43:50.916Z,21.85
2022-12-13T16:47:17.047Z,27.80
2022-12-13T16:49:17.153Z,30.25
2022-12-13T16:51:48.349Z,32.33
2022-12-13T16:54:18.353Z,31.20
2022-12-13T16:56:46.502Z,29.48
2022-12-13T16:59:16.877Z,23.10
2022-12-13T17:01:45.671Z,32.05
2022-12-13T17:04:20.928Z,34.05
2022-12-13T17:06:54.832Z,28.80
2022-12-13T17:09:23.528Z,26.48
2022-12-13T17:11:51.812Z,34.15
2022-12-13T17:14:19.994Z,33.08
2022-12-13T17:16:48.417Z,30.67
2022-12-13T17:19:17.686Z,30.88
2022-12-13T17:21:45.577Z,29.83
2022-12-13T17:24:15.656Z,34.40
2022-12-13T17:26:53.878Z,19.48
2022-12-13T17:29:24.831Z,34.83
2022-12-13T17:31:55.780Z,27.35
2022-12-13T17:34:23.800Z,33.58
2022-12-13T17:36:51.687Z,22.38
2022-12-13T17:39:20.911Z,28.35
2022-12-13T17:41:54.779Z,33.40
2022-12-13T17:44:24.991Z,35.08
2022-12-13T17:46:54.550Z,38.50
2022-12-13T17:49:24.130Z,35.70
2022-12-13T17:51:57.669Z,41.17
2022-12-13T17:54:25.747Z,43.17
2022-12-13T17:56:53.642Z,33.60
2022-12-13T17:59:21.765Z,36.70
2022-12-13T18:01:52.340Z,31.05
2022-12-13T18:04:20.810Z,44.55
2022-12-13T18:06:51.144Z,33.20
2022-12-13T18:09:19.657Z,36.85
2022-12-13T18:11:50.674Z,26.42
2022-12-13T18:14:18.864Z,30.83
2022-12-13T18:16:47.755Z,40.38
2022-12-13T18:19:15.813Z,21.88
2022-12-13T18:21:43.912Z,25.63
2022-12-13T18:24:14.297Z,26.67
2022-12-13T18:26:44.324Z,26.63
2022-12-13T18:29:12.225Z,19.13
2022-12-13T18:31:40.395Z,30.20
2022-12-13T18:34:08.428Z,24.27
2022-12-13T18:36:36.763Z,23.27
2022-12-13T18:39:04.981Z,17.60
2022-12-13T18:41:33.359Z,30.83
2022-12-13T18:44:06.831Z,24.15
2022-12-13T18:46:36.256Z,33.13
2022-12-13T18:49:05.288Z,26.98
2022-12-13T18:51:33.589Z,31.60
2022-12-13T18:54:01.744Z,30.55
2022-12-13T18:56:29.850Z,30.27
2022-12-13T18:58:58.828Z,27.30
2022-12-13T19:01:28.231Z,35.35
2022-12-13T19:03:56.449Z,23.00
2022-12-13T19:06:25.860Z,24.33
2022-12-13T19:08:55.740Z,34.15
2022-12-13T19:11:24.481Z,30.77
2022-12-13T19:13:52.317Z,22.23
2022-12-13T19:16:21.284Z,36.17
2022-12-13T19:18:49.510Z,27.13
2022-12-13T19:21:19.105Z,30.70
2022-12-13T19:23:55.057Z,22.02
2022-12-13T19:26:26.256Z,20.90
2022-12-13T19:28:58.122Z,21.10
2022-12-13T19:31:32.315Z,29.98
2022-12-13T19:34:06.637Z,26.92
2022-12-13T19:36:34.824Z,23.08
2022-12-13T19:39:03.008Z,25.08
2022-12-13T19:41:33.650Z,28.48
2022-12-13T19:44:06.009Z,22.88
2022-12-13T19:46:34.988Z,35.63
2022-12-13T19:49:02.939Z,23.13
2022-12-13T19:51:37.545Z,24.88
2022-12-13T19:54:10.895Z,26.00
2022-12-13T19:56:38.792Z,29.15
2022-12-13T19:59:07.741Z,33.05
2022-12-13T20:01:35.802Z,29.27
2022-12-13T20:04:04.271Z,23.98
2022-12-13T20:06:32.835Z,28.98
2022-12-13T20:09:01.887Z,22.15
2022-12-13T20:11:38.160Z,20.98
2022-12-13T20:14:05.877Z,19.45
2022-12-13T20:16:34.131Z,26.10
2022-12-13T20:19:02.563Z,22.02
2022-12-13T20:21:30.682Z,25.08
2022-12-13T20:23:59.378Z,22.30
2022-12-13T20:26:28.786Z,22.85
2022-12-13T20:28:56.800Z,25.75
2022-12-13T20:31:27.293Z,21.92
2022-12-13T20:34:00.102Z,29.35
2022-12-13T20:36:31.560Z,27.27
2022-12-13T20:39:00.475Z,29.20
2022-12-13T20:41:29.245Z,23.23
2022-12-13T20:43:58.138Z,18.55
2022-12-13T20:46:26.435Z,18.63
2022-12-13T20:48:56.375Z,27.55
2022-12-13T20:51:26.698Z,24.20
2022-12-13T20:53:54.634Z,21.52
2022-12-13T20:56:24.290Z,27.50
2022-12-13T20:58:52.415Z,19.05
2022-12-13T21:01:26.044Z,26.17
2022-12-13T21:03:56.716Z,29.30
2022-12-13T21:06:24.642Z,17.63
2022-12-13T21:08:52.543Z,20.88
2022-12-13T21:11:30.304Z,20.60
2022-12-13T21:14:22.977Z,20.13
2022-12-13T21:16:55.963Z,21.52
2022-12-13T21:19:25.994Z,17.35
2022-12-13T21:21:54.610Z,21.73
2022-12-13T21:24:23.959Z,22.70
2022-12-13T21:26:52.271Z,18.30
2022-12-13T21:29:20.358Z,20.83
2022-12-13T21:31:50.148Z,17.42
2022-12-13T21:34:18.218Z,14.18
2022-12-13T21:36:47.257Z,14.70
2022-12-13T21:39:23.055Z,12.07
2022-12-13T21:41:50.801Z,15.05
2022-12-13T21:44:20.673Z,18.83
2022-12-13T21:47:11.808Z,15.70
2022-12-13T21:49:48.319Z,17.48
2022-12-13T21:52:20.964Z,16.88
2022-12-13T21:54:52.890Z,17.13
2022-12-13T21:57:46.453Z,12.40
2022-12-13T22:00:15.337Z,14.90
2022-12-13T22:02:44.152Z,16.15
2022-12-13T22:05:12.028Z,10.90
2022-12-13T22:07:39.936Z,10.88
2022-12-13T22:10:08.069Z,14.45
2022-12-13T22:12:40.255Z,13.20
2022-12-13T22:15:10.637Z,14.32
2022-12-13T22:17:40.511Z,19.48
2022-12-13T22:20:11.226Z,14.02
2022-12-13T22:22:39.523Z,11.55
2022-12-13T22:25:10.840Z,14.02
2022-12-13T22:27:39.569Z,16.45
2022-12-13T22:30:11.451Z,10.55
2022-12-13T22:32:43.627Z,13.05
2022-12-13T22:35:14.845Z,13.45
2022-12-13T22:37:42.633Z,14.40
2022-12-13T22:40:12.438Z,11.18
2022-12-13T22:42:40.241Z,11.55
2022-12-13T22:45:08.366Z,14.63
2022-12-13T22:47:36.387Z,18.55
2022-12-13T22:50:04.168Z,16.83
2022-12-13T22:52:34.315Z,11.68
2022-12-13T22:55:02.608Z,16.30
2022-12-13T22:57:30.703Z,17.75
2022-12-13T23:00:00.443Z,19.98
2022-12-13T23:02:28.238Z,17.38
2022-12-13T23:04:56.177Z,21.15
2022-12-13T23:07:24.040Z,17.83
2022-12-13T23:09:51.939Z,18.17
2022-12-13T23:12:38.634Z,20.40
2022-12-13T23:15:07.388Z,16.77
2022-12-13T23:17:35.475Z,18.55
2022-12-13T23:20:04.678Z,23.52
2022-12-13T23:22:35.020Z,21.27
2022-12-13T23:25:05.944Z,14.48
2022-12-13T23:27:36.852Z,21.08
2022-12-13T23:30:08.584Z,25.23
2022-12-13T23:35:07.734Z,25.60
2022-12-13T23:40:04.203Z,22.90
2022-12-13T23:42:32.298Z,22.83
2022-12-13T23:45:00.196Z,30.92
2022-12-13T23:47:28.823Z,27.23
2022-12-13T23:49:57.947Z,28.17
2022-12-13T23:52:33.218Z,22.70
2022-12-13T23:55:07.845Z,26.33
